Flight Track Log - Related Links

Times and Time Zones

All times are in EDT time to prevent confusion due to time zone crossing. See the ASA458 flight status page for this flight to view local times or setup timezone preferences in your user account.

Time Position Orientation Groundspeed Altitude Reporting Facility
EDT Latitude Longitude Course Direction KTS MPH feet Rate Location/Type
Fri 05:49:17 PM 47.4239 -122.3083 180° South 189 217 1,500  Level Seattle Center
Fri 05:50:18 PM 47.3697 -122.3086 180° South 196 226 3,400 2,016 Climbing Seattle Center
Fri 05:51:19 PM 47.3031 -122.3089 180° South 236 272 5,600 2,361 Climbing Seattle Center
Fri 05:52:20 PM 47.2258 -122.3072 179° South 258 297 8,200 2,508 Climbing Seattle Center
Fri 05:53:21 PM 47.1606 -122.2478 148° Southeast 277 319 10,700 1,820 Climbing Seattle Center
Fri 05:54:22 PM 47.0875 -122.1789 147° Southeast 319 367 11,900 1,820 Climbing Seattle Center
Fri 05:55:23 PM 46.9936 -122.1569 171° South 346 398 14,400 2,607 Climbing Seattle Center
Fri 05:56:24 PM 46.8933 -122.1506 178° South 359 413 17,200 2,311 Climbing Seattle Center
Fri 05:57:25 PM 46.7875 -122.1469 179° South 373 429 19,100 1,820 Climbing Seattle Center
Fri 05:58:26 PM 46.6775 -122.1406 178° South 396 456 20,900 1,820 Climbing Seattle Center
Fri 05:59:27 PM 46.5631 -122.1347 178° South 413 475 22,800 1,623 Climbing Seattle Center
Fri 06:00:28 PM 46.4433 -122.1303 179° South 429 494 24,200 1,426 Climbing Seattle Center
Fri 06:01:29 PM 46.3200 -122.1156 175° South 448 516 25,700 1,426 Climbing Seattle Center
Fri 06:02:30 PM 46.1917 -122.0828 170° South 465 535 27,100 1,770 Climbing Seattle Center
Fri 06:03:31 PM 46.0647 -122.0514 170° South 464 534 29,300 1,770 Climbing Seattle Center
Fri 06:04:32 PM 45.9408 -122.0225 171° South 453 521 30,700 1,426 Climbing Seattle Center
Fri 06:05:33 PM 45.8172 -121.9939 171° South 451 519 32,200 1,475 Climbing Seattle Center
Fri 06:06:34 PM 45.6700 -121.9608 171° South 446 513 33,700 1,131 Climbing Seattle Center
Fri 06:07:35 PM 45.5558 -121.9308 170° South 444 511 34,500 639 Climbing Seattle Center
Fri 06:08:36 PM 45.4336 -121.9014 170° South 446 513 35,000 246 Climbing Seattle Center
Fri 06:09:37 PM 45.3097 -121.8711 170° South 451 519 35,000  Level Seattle Center
Fri 06:10:38 PM 45.1861 -121.8436 171° South 452 520 35,000  Level Seattle Center
Fri 06:11:39 PM 45.0617 -121.8156 171° South 453 521 35,000  Level Seattle Center
Fri 06:12:40 PM 44.9389 -121.7878 171° South 450 518 35,000  Level Seattle Center
Fri 06:13:40 PM 44.7908 -121.7536 171° South 452 520 35,000  Level Seattle Center
Fri 06:14:41 PM 44.6678 -121.7264 171° South 450 518 35,000  Level Seattle Center
Fri 06:15:42 PM 44.5447 -121.6983 171° South 450 518 35,000  Level Seattle Center
Fri 06:16:43 PM 44.4206 -121.6714 171° South 453 521 35,000  Level Seattle Center
Fri 06:17:44 PM 44.2972 -121.6431 171° South 452 520 35,000  Level Seattle Center
Fri 06:18:46 PM 44.1731 -121.6142 171° South 454 522 35,000  Level Seattle Center
Fri 06:19:47 PM 44.0483 -121.5847 170° South 456 525 35,000  Level Seattle Center
Fri 06:20:48 PM 43.9256 -121.5564 171° South 451 519 35,000  Level Seattle Center
Fri 06:21:49 PM 43.7869 -121.5267 171° South 458 527 35,000  Level Seattle Center
Fri 06:22:50 PM 43.6639 -121.4986 171° South 449 517 35,000  Level Seattle Center
Fri 06:23:51 PM 43.5422 -121.4711 171° South 445 512 35,000  Level Seattle Center
Fri 06:24:52 PM 43.4208 -121.4419 170° South 444 511 35,000  Level Seattle Center
Fri 06:25:53 PM 43.3011 -121.4158 171° South 440 506 35,000  Level Seattle Center
Fri 06:26:54 PM 43.1825 -121.3919 172° South 433 498 35,000  Level Seattle Center
Fri 06:27:55 PM 43.0644 -121.3653 171° South 428 493 35,000  Level Seattle Center
Fri 06:28:56 PM 42.9464 -121.3383 171° South 429 494 35,000  Level Seattle Center
Fri 06:29:57 PM 42.8294 -121.3131 171° South 425 489 35,000  Level Seattle Center
Fri 06:30:58 PM 42.7111 -121.2867 171° South 427 491 35,000  Level Seattle Center
Fri 06:31:59 PM 42.5925 -121.2608 171° South 430 495 35,000  Level Seattle Center
Fri 06:32:59 PM 42.4736 -121.2353 171° South 430 495 35,000  Level Seattle Center
Fri 06:34:00 PM 42.3558 -121.2094 171° South 429 494 35,000  Level Seattle Center
Fri 06:35:01 PM 42.2108 -121.1775 171° South 439 505 35,000  Level Seattle Center
Fri 06:36:02 PM 42.0894 -121.1517 171° South 438 504 35,000  Level Seattle Center
Fri 06:37:03 PM 41.9703 -121.1253 171° South 433 498 35,000  Level Seattle Center
Fri 06:38:04 PM 41.8492 -121.0997 171° South 435 501 35,000  Level Seattle Center
Fri 06:39:05 PM 41.7300 -121.0739 171° South 433 498 35,000  Level Seattle Center
Fri 06:40:06 PM 41.6122 -121.0489 171° South 430 495 35,000  Level Seattle Center
Fri 06:41:07 PM 41.4933 -121.0228 171° South 430 495 35,000  Level Seattle Center
Fri 06:42:08 PM 41.3753 -120.9969 171° South 429 494 35,000  Level Seattle Center
Fri 06:43:09 PM 41.2553 -120.9714 171° South 432 497 35,000  Level Seattle Center
Fri 06:44:10 PM 41.1364 -120.9461 171° South 433 498 35,000  Level Seattle Center
Fri 06:44:57 PM 41.0417 -120.9267 171° South 431 496 35,000  Level Oakland Center
Fri 06:45:58 PM 40.9222 -120.9103 174° South 429 494 35,000  Level Oakland Center
Fri 06:47:00 PM 40.8042 -120.9014 177° South 424 488 35,000  Level Oakland Center
Fri 06:48:01 PM 40.6839 -120.8928 177° South 430 495 35,000  Level Oakland Center
Fri 06:49:03 PM 40.5497 -120.8819 176° South 430 495 35,000  Level Oakland Center
Fri 06:50:04 PM 40.4300 -120.8667 174° South 432 497 35,000  Level Oakland Center
Fri 06:51:06 PM 40.3094 -120.8600 178° South 433 498 35,000  Level Oakland Center
Fri 06:52:07 PM 40.1894 -120.8542 178° South 434 499 35,000  Level Oakland Center
Fri 06:53:09 PM 40.0689 -120.8450 177° South 432 497 35,000  Level Oakland Center
Fri 06:54:10 PM 39.9475 -120.8319 175° South 437 503 35,000  Level Oakland Center
Fri 06:55:12 PM 39.8275 -120.8217 176° South 435 501 35,000  Level Oakland Center
Fri 06:56:13 PM 39.6850 -120.8117 177° South 430 495 35,000  Level Oakland Center
Fri 06:57:15 PM 39.5656 -120.8031 177° South 429 494 35,000  Level Oakland Center
Fri 06:58:16 PM 39.4461 -120.7953 177° South 429 494 35,000  Level Oakland Center
Fri 06:59:18 PM 39.3261 -120.7850 176° South 430 495 35,000  Level Oakland Center
Fri 07:00:19 PM 39.2064 -120.7775 177° South 429 494 35,000  Level Oakland Center
Fri 07:01:21 PM 39.0861 -120.7686 177° South 431 496 35,000  Level Oakland Center
Fri 07:02:22 PM 38.9667 -120.7589 176° South 429 494 35,000  Level Oakland Center
Fri 07:03:24 PM 38.8472 -120.7500 177° South 430 495 35,000  Level Oakland Center
Fri 07:04:25 PM 38.7258 -120.7417 177° South 431 496 35,000  Level Oakland Center
Fri 07:05:27 PM 38.6056 -120.7319 176° South 431 496 35,000  Level Oakland Center
Fri 07:06:28 PM 38.4606 -120.7211 177° South 431 496 35,000  Level Oakland Center
Fri 07:07:30 PM 38.3397 -120.7128 177° South 431 496 35,000  Level Oakland Center
Fri 07:08:32 PM 38.2208 -120.7031 176° South 426 490 35,000  Level Oakland Center
Fri 07:10:35 PM 37.9850 -120.6853 177° South 422 486 35,000  Level Oakland Center
Fri 07:11:36 PM 37.8650 -120.6703 174° South 430 495 35,000  Level Oakland Center
Fri 07:12:38 PM 37.7472 -120.6294 165° South 436 502 35,000  Level Oakland Center
Fri 07:13:39 PM 37.6281 -120.5917 166° South 439 505 35,000  Level Oakland Center
Fri 07:14:41 PM 37.5103 -120.5553 166° South 437 503 35,000  Level Oakland Center
Fri 07:15:43 PM 37.3683 -120.5089 165° South 438 504 35,000  Level Oakland Center
Fri 07:16:44 PM 37.2475 -120.4733 167° South 442 509 35,000  Level Oakland Center
Fri 07:17:46 PM 37.1300 -120.4356 166° South 435 501 35,000  Level Oakland Center
Fri 07:18:48 PM 37.0122 -120.3994 166° South 434 499 35,000  Level Oakland Center
Fri 07:19:49 PM 36.8933 -120.3617 166° South 441 507 35,000  Level Oakland Center
Fri 07:20:51 PM 36.7628 -120.3211 166° South 438 504 35,000  Level Oakland Center
Fri 07:21:52 PM 36.6439 -120.2828 165° South 440 506 35,000  Level Oakland Center
Fri 07:22:54 PM 36.5258 -120.2464 166° South 438 504 35,000  Level Oakland Center
Fri 07:23:55 PM 36.4064 -120.2103 166° South 439 505 35,000  Level Oakland Center
Fri 07:24:57 PM 36.2886 -120.1739 166° South 435 501 35,000  Level Oakland Center
Fri 07:25:59 PM 36.1667 -120.1358 166° South 447 514 35,000  Level Oakland Center
Fri 07:27:00 PM 36.0467 -120.0983 166° South 443 510 35,000  Level Oakland Center
Fri 07:28:02 PM 35.9275 -120.0617 166° South 440 506 35,000  Level Oakland Center
Fri 07:29:04 PM 35.7808 -120.0183 167° South 446 513 35,000  Level Oakland Center
Fri 07:30:05 PM 35.6594 -119.9806 166° South 448 516 35,000  Level Oakland Center
Fri 07:30:44 PM 35.5944 -119.9319 149° Southeast 456 525 35,000 -59 Level Los Angeles Center
Fri 07:31:46 PM 35.4872 -119.8389 145° Southeast 465 535 34,900 -212 Descending Los Angeles Center
Fri 07:32:09 PM 35.4433 -119.8028 146° Southeast 463 533 34,700 -1,071 Descending Oakland Center
Fri 07:33:10 PM 35.3364 -119.7114 145° Southeast 464 534 33,400 -1,307 Descending Oakland Center
Fri 07:33:50 PM 35.2739 -119.6561 144° Southeast 466 536 32,500 -1,353 Descending Los Angeles Center
Fri 07:34:52 PM 35.1669 -119.5656 145° Southeast 466 536 31,100 -1,210 Descending Los Angeles Center
Fri 07:35:54 PM 35.0406 -119.4564 145° Southeast 461 531 30,000 -720 Descending Los Angeles Center
Fri 07:36:57 PM 34.9378 -119.3703 146° Southeast 453 521 29,600 -1,248 Descending Los Angeles Center
Fri 07:37:59 PM 34.8392 -119.2844 144° Southeast 438 504 27,400 -2,323 Descending Los Angeles Center
Fri 07:39:01 PM 34.7386 -119.2003 145° Southeast 439 505 24,800 -2,565 Descending Los Angeles Center
Fri 07:40:03 PM 34.6272 -119.1067 145° Southeast 432 497 22,100 -2,592 Descending Los Angeles Center
Fri 07:41:06 PM 34.5297 -119.0258 146° Southeast 424 488 19,400 -2,371 Descending Los Angeles Center
Fri 07:42:07 PM 34.4331 -118.9458 146° Southeast 419 482 17,200 -2,146 Descending Los Angeles Center
Fri 07:43:09 PM 34.3400 -118.8753 148° Southeast 396 456 15,000 -2,177 Descending Los Angeles Center
Fri 07:44:11 PM 34.2392 -118.8378 163° South 379 436 12,700 -1,790 Descending Los Angeles Center
Fri 07:45:13 PM 34.1264 -118.7975 164° South 351 404 11,300 -1,258 Descending Los Angeles Center
Fri 07:46:15 PM 34.0458 -118.7533 156° South 333 383 10,100 -581 Descending Los Angeles Center
Fri 07:47:17 PM 34.0278 -118.6464 101° East 305 351 10,100 -677 Level Los Angeles Center
Fri 07:48:19 PM 34.0200 -118.5478 95° East 296 341 8,700 -1,152 Descending Los Angeles Center
Fri 07:49:22 PM 34.0119 -118.4597 96° East 288 331 7,700 -960 Descending Los Angeles Center
Fri 07:50:24 PM 34.0233 -118.3706 81° East 275 316 6,700 -726 Descending Los Angeles Center
Fri 07:51:26 PM 34.0278 -118.2947 86° East 242 278 6,200 -1,016 Descending Los Angeles Center
Fri 07:52:28 PM 33.9744 -118.2828 169° South 179 206 4,600 -1,742 Descending Los Angeles Center
Fri 07:53:30 PM 33.9606 -118.3278 250° West 165 190 2,600 -1,790 Descending Los Angeles Center
Fri 07:54:32 PM 33.9556 -118.3758 263° West 153 176 900 -1,161 Descending Los Angeles Center
Fri 07:55:34 PM 33.9492 -118.4272 261° West 147 169 200 -677 Descending Los Angeles Center
Fri 07:57:00 PM 33.9425 -118.4081 220° Southwest  Level Estimated

Login

Don't have an account? Register now (free) for customized features, flight alerts, and more!